Time;durP1;ratioP1;P1;durP2;ratioP2;P2;SDS_P1;SDS_P2;PMS_P1;PMS_P2;Temp;Humidity;BMP_temperature;BMP_pressure;BME280_temperature;BME280_humidity;BME280_pressure;Samples;Min_cycle;Max_cycle;Signal;HPM_P1;HPM_P2
2022/11/24 00:02:12;;;;;;;22.88;17.92;;;5.50;99.90;;;;;;4252421;28;20035;-86
2022/11/24 00:04:32;;;;;;;17.73;15.98;;;5.50;99.90;;;;;;4236706;28;20089;-86
2022/11/24 00:06:52;;;;;;;18.63;16.80;;;5.50;99.90;;;;;;4238705;28;20081;-86
2022/11/24 00:09:12;;;;;;;20.30;16.60;;;5.60;99.90;;;;;;4249017;27;20046;-86
2022/11/24 00:11:34;;;;;;;22.65;18.15;;;5.50;99.90;;;;;;4235904;28;20101;-86
2022/11/24 00:13:54;;;;;;;20.20;17.27;;;5.40;99.90;;;;;;4232990;28;20062;-86
2022/11/24 00:16:17;;;;;;;18.85;16.95;;;5.40;99.90;;;;;;4233321;28;20047;-86
2022/11/24 00:18:40;;;;;;;;;;;5.40;99.90;;;;;;4247076;28;20042;-86
2022/11/24 00:21:00;;;;;;;16.53;14.87;;;5.40;99.90;;;;;;4247703;28;20221;-86
2022/11/24 00:23:20;;;;;;;16.17;14.80;;;5.40;99.90;;;;;;4233775;28;20051;-86
2022/11/24 00:25:41;;;;;;;17.40;15.60;;;5.60;99.90;;;;;;4235145;28;20051;-87
2022/11/24 00:28:01;;;;;;;16.67;15.02;;;5.60;99.90;;;;;;4235769;28;20173;-86
2022/11/24 00:30:22;;;;;;;18.02;16.08;;;5.60;99.90;;;;;;4246312;28;20085;-86
2022/11/24 00:32:42;;;;;;;19.02;17.15;;;5.60;99.90;;;;;;4234073;28;20080;-86
2022/11/24 00:35:05;;;;;;;17.10;15.63;;;5.50;99.90;;;;;;4247244;28;20389;-86
2022/11/24 00:37:25;;;;;;;17.70;15.90;;;5.40;99.90;;;;;;4248975;28;20098;-86
2022/11/24 00:39:44;;;;;;;18.15;16.17;;;5.40;99.90;;;;;;4247918;28;20046;-86
2022/11/24 00:42:04;;;;;;;15.82;14.45;;;5.40;99.90;;;;;;4248163;28;20038;-86
2022/11/24 00:44:24;;;;;;;20.73;16.08;;;5.60;99.90;;;;;;4248504;28;20108;-86
2022/11/24 00:46:44;;;;;;;16.35;14.68;;;5.60;99.90;;;;;;4232897;28;20319;-86
2022/11/24 00:49:04;;;;;;;16.40;14.82;;;5.70;99.90;;;;;;4245566;28;20397;-86
2022/11/24 00:51:28;;;;;;;30.17;21.08;;;5.70;99.90;;;;;;4232967;28;20393;-87
2022/11/24 00:53:48;;;;;;;21.90;16.30;;;5.60;99.90;;;;;;4238632;28;20038;-87
2022/11/24 00:56:10;;;;;;;17.65;16.02;;;5.60;99.90;;;;;;4248072;28;20369;-86
2022/11/24 00:58:31;;;;;;;17.05;15.52;;;5.60;99.90;;;;;;4249540;28;20084;-86
2022/11/24 01:00:53;;;;;;;18.38;16.60;;;5.60;99.90;;;;;;4234595;28;20369;-87
2022/11/24 01:03:14;;;;;;;17.77;16.05;;;5.60;99.90;;;;;;4233116;28;20043;-86
2022/11/24 01:05:36;;;;;;;16.83;15.02;;;5.60;99.90;;;;;;4250508;28;20150;-87
2022/11/24 01:07:56;;;;;;;16.88;15.40;;;5.60;99.90;;;;;;4247385;28;20042;-86
2022/11/24 01:10:16;;;;;;;17.95;16.20;;;5.60;99.90;;;;;;4244399;28;20238;-87
2022/11/24 01:12:35;;;;;;;19.35;17.40;;;5.60;99.90;;;;;;4233912;28;20124;-86
2022/11/24 01:14:58;;;;;;;19.33;17.38;;;5.60;99.90;;;;;;4232363;28;20089;-86
2022/11/24 01:17:17;;;;;;;22.95;17.23;;;5.60;99.90;;;;;;4249656;28;20038;-87
2022/11/24 01:19:37;;;;;;;19.67;17.63;;;5.60;99.90;;;;;;4235740;28;20058;-86
2022/11/24 01:21:57;;;;;;;19.67;17.42;;;5.60;99.90;;;;;;4235228;28;20258;-86
2022/11/24 01:24:17;;;;;;;17.77;16.27;;;5.60;99.90;;;;;;4246188;28;20053;-87
2022/11/24 01:26:40;;;;;;;18.52;15.93;;;5.60;99.90;;;;;;4233148;28;20051;-86
2022/11/24 01:28:59;;;;;;;17.65;16.23;;;5.60;99.90;;;;;;4233505;28;20108;-86
2022/11/24 01:31:21;;;;;;;17.65;16.00;;;5.60;99.90;;;;;;4238030;28;20088;-86
2022/11/24 01:33:41;;;;;;;15.65;14.55;;;5.70;99.90;;;;;;4246621;28;20042;-87
2022/11/24 01:36:03;;;;;;;15.27;13.85;;;5.70;99.90;;;;;;4231713;28;20265;-86
2022/11/24 01:38:24;;;;;;;15.95;14.65;;;5.70;99.90;;;;;;4232722;28;20047;-87
2022/11/24 01:40:44;;;;;;;14.27;13.38;;;5.70;99.90;;;;;;4245700;28;20078;-86
2022/11/24 01:43:18;;;;;;;12.98;12.10;;;5.80;99.90;;;;;;4233354;28;20242;-87
2022/11/24 01:45:39;;;;;;;13.48;12.10;;;5.90;99.90;;;;;;4246532;28;20042;-87
2022/11/24 01:48:04;;;;;;;15.18;13.73;;;5.80;99.90;;;;;;4251184;28;20098;-87
2022/11/24 01:50:24;;;;;;;16.02;14.63;;;5.80;99.90;;;;;;4236730;28;20047;-87
2022/11/24 01:52:51;;;;;;;16.48;14.98;;;5.80;99.90;;;;;;4250283;28;20042;-87
2022/11/24 01:55:18;;;;;;;19.40;17.02;;;5.80;99.90;;;;;;4249953;28;20046;-86
2022/11/24 01:57:47;;;;;;;25.05;19.77;;;5.80;99.90;;;;;;4239886;28;20407;-86
2022/11/24 02:00:12;;;;;;;18.27;16.55;;;5.80;99.90;;;;;;4234775;28;20075;-86
2022/11/24 02:02:32;;;;;;;15.93;14.73;;;5.90;99.90;;;;;;4245191;28;20070;-86
2022/11/24 02:04:54;;;;;;;16.88;15.43;;;5.90;99.90;;;;;;4231915;28;20231;-86
2022/11/24 02:07:14;;;;;;;15.48;14.30;;;5.90;99.90;;;;;;4229862;28;20035;-87
2022/11/24 02:09:54;;;;;;;15.93;14.63;;;5.90;99.90;;;;;;4238796;28;20186;-86
2022/11/24 02:12:14;;;;;;;14.57;13.57;;;5.90;99.90;;;;;;4246102;28;20373;-86
2022/11/24 02:14:36;;;;;;;14.35;13.10;;;5.90;99.90;;;;;;4246795;28;20104;-86
2022/11/24 02:16:56;;;;;;;13.20;12.00;;;6.00;99.90;;;;;;4234622;28;20047;-87
2022/11/24 02:19:34;;;;;;;14.40;13.07;;;6.00;99.90;;;;;;4233144;28;20046;-86
2022/11/24 02:21:54;;;;;;;12.10;11.10;;;6.00;99.90;;;;;;4246157;28;20125;-86
2022/11/24 02:24:23;;;;;;;9.57;9.18;;;6.10;99.90;;;;;;4244154;28;20050;-87
2022/11/24 02:26:47;;;;;;;9.65;9.10;;;6.00;99.90;;;;;;4230780;28;20043;-87
2022/11/24 02:29:07;;;;;;;11.30;10.57;;;6.00;99.90;;;;;;4232880;28;20042;-86
2022/11/24 02:31:28;;;;;;;9.68;9.25;;;6.00;99.90;;;;;;4234652;28;20047;-87
2022/11/24 02:33:50;;;;;;;11.52;10.68;;;6.00;99.90;;;;;;4247878;28;20149;-87
2022/11/24 02:36:10;;;;;;;16.13;13.85;;;6.10;99.90;;;;;;4248625;28;20361;-87
2022/11/24 02:38:34;;;;;;;14.55;13.55;;;6.10;99.90;;;;;;4250788;28;20039;-86
2022/11/24 02:40:54;;;;;;;16.25;14.90;;;6.10;99.90;;;;;;4240883;28;20066;-86
2022/11/24 02:43:21;;;;;;;15.50;14.23;;;6.10;99.90;;;;;;4231105;28;20059;-86
2022/11/24 02:45:41;;;;;;;17.02;15.38;;;6.00;99.90;;;;;;4241409;28;20038;-86
2022/11/24 02:48:01;;;;;;;15.15;14.05;;;6.00;99.90;;;;;;4249934;28;20076;-86
2022/11/24 02:50:20;;;;;;;16.83;14.65;;;6.00;99.90;;;;;;4250562;28;20050;-87
2022/11/24 02:52:40;;;;;;;17.90;16.25;;;6.10;99.90;;;;;;4248557;28;20080;-87
2022/11/24 02:55:04;;;;;;;14.95;13.80;;;6.10;99.90;;;;;;4236136;28;20048;-87
2022/11/24 02:57:23;;;;;;;17.15;15.48;;;6.10;99.90;;;;;;4235908;28;20046;-86
2022/11/24 02:59:43;;;;;;;16.92;15.52;;;6.10;99.90;;;;;;4249340;28;20272;-86
2022/11/24 03:02:03;;;;;;;18.92;17.10;;;6.00;99.90;;;;;;4242725;28;20046;-87
2022/11/24 03:04:24;;;;;;;15.68;14.40;;;6.00;99.90;;;;;;4233175;28;20104;-86
2022/11/24 03:06:44;;;;;;;15.20;14.05;;;6.00;99.90;;;;;;4250597;28;20042;-87
2022/11/24 03:09:04;;;;;;;14.23;13.13;;;6.00;99.90;;;;;;4237410;28;20043;-87
2022/11/24 03:11:24;;;;;;;14.60;13.55;;;6.10;99.90;;;;;;4235616;28;20112;-87
2022/11/24 03:13:44;;;;;;;13.55;12.55;;;6.10;99.90;;;;;;4247678;28;20039;-87
2022/11/24 03:16:07;;;;;;;12.18;11.38;;;6.10;99.90;;;;;;4235576;28;20055;-87
2022/11/24 03:18:27;;;;;;;12.85;11.95;;;6.10;99.90;;;;;;4235727;28;20042;-87
2022/11/24 03:20:48;;;;;;;12.88;11.98;;;6.10;99.90;;;;;;4235740;28;20432;-86
2022/11/24 03:23:08;;;;;;;11.90;11.18;;;6.10;99.90;;;;;;4240007;28;20035;-87
2022/11/24 03:25:28;;;;;;;11.77;11.15;;;6.10;99.90;;;;;;4235741;28;20432;-87
2022/11/24 03:27:47;;;;;;;13.95;12.18;;;6.20;99.90;;;;;;4254875;28;20038;-87
2022/11/24 03:30:08;;;;;;;13.57;12.55;;;6.20;99.90;;;;;;4230191;28;20046;-87
2022/11/24 03:32:27;;;;;;;13.02;11.85;;;6.20;99.90;;;;;;4250293;28;20042;-87
2022/11/24 03:34:49;;;;;;;13.30;12.35;;;6.20;99.90;;;;;;4251437;28;20042;-86
2022/11/24 03:37:09;;;;;;;15.15;13.98;;;6.20;99.90;;;;;;4251912;28;20038;-86
2022/11/24 03:39:29;;;;;;;16.70;15.02;;;6.20;99.90;;;;;;4235005;28;20053;-87
2022/11/24 03:41:50;;;;;;;17.83;16.13;;;6.20;99.90;;;;;;4238378;28;20103;-87
2022/11/24 03:44:10;;;;;;;16.63;15.15;;;6.20;99.90;;;;;;4233276;28;20058;-87
2022/11/24 03:46:30;;;;;;;15.98;14.07;;;6.20;99.90;;;;;;4240433;28;20054;-87
2022/11/24 03:48:51;;;;;;;17.17;15.77;;;6.20;99.90;;;;;;4234603;28;20215;-87
2022/11/24 03:51:11;;;;;;;16.83;15.13;;;6.20;99.90;;;;;;4232376;28;20127;-86
2022/11/24 03:53:32;;;;;;;16.13;14.63;;;6.20;99.90;;;;;;4251641;28;20091;-87
2022/11/24 03:55:53;;;;;;;16.30;14.80;;;6.20;99.90;;;;;;4246158;28;20043;-86
2022/11/24 03:58:13;;;;;;;17.23;15.60;;;6.20;99.90;;;;;;4248410;28;20042;-87
2022/11/24 04:00:33;;;;;;;17.25;15.75;;;6.20;99.90;;;;;;4235386;28;20366;-87
2022/11/24 04:02:53;;;;;;;17.27;15.52;;;6.10;99.90;;;;;;4249307;28;20357;-86
2022/11/24 04:05:14;;;;;;;16.00;14.38;;;6.10;99.90;;;;;;4250183;28;20051;-87
2022/11/24 04:07:34;;;;;;;15.57;14.40;;;6.10;99.90;;;;;;4237130;28;20042;-87
2022/11/24 04:09:55;;;;;;;16.45;15.02;;;6.10;99.90;;;;;;4241388;28;20047;-87
2022/11/24 04:14:53;;;;;;;14.55;13.55;;;6.10;99.90;;;;;;4247146;28;20084;-86
2022/11/24 04:17:12;;;;;;;14.73;13.73;;;6.10;99.90;;;;;;4238508;28;20115;-87
2022/11/24 04:19:32;;;;;;;16.67;15.20;;;6.10;99.90;;;;;;4250693;28;20110;-87
2022/11/24 04:21:52;;;;;;;16.58;15.27;;;6.10;99.90;;;;;;4249182;28;20055;-87
2022/11/24 04:24:12;;;;;;;16.13;14.38;;;6.10;99.90;;;;;;4232844;28;20047;-87
2022/11/24 04:26:31;;;;;;;15.10;14.05;;;6.10;99.90;;;;;;4235411;28;20091;-86
2022/11/24 04:28:51;;;;;;;14.82;13.68;;;6.10;99.90;;;;;;4249089;28;20042;-87
2022/11/24 04:31:11;;;;;;;14.95;14.00;;;6.20;99.90;;;;;;4236572;28;20050;-87
2022/11/24 04:33:31;;;;;;;15.10;13.93;;;6.10;99.90;;;;;;4251396;28;20395;-87
2022/11/24 04:35:52;;;;;;;14.63;13.18;;;6.20;99.90;;;;;;4232090;28;20379;-86
2022/11/24 04:38:12;;;;;;;14.68;13.30;;;6.20;99.90;;;;;;4247917;28;20365;-87
2022/11/24 04:40:53;;;;;;;14.48;13.23;;;6.20;99.90;;;;;;4247232;28;20357;-86
2022/11/24 04:43:13;;;;;;;14.15;13.10;;;6.20;99.90;;;;;;4231827;28;20137;-87
2022/11/24 04:45:33;;;;;;;16.88;15.38;;;6.20;99.90;;;;;;4247888;28;20272;-86
2022/11/24 04:47:53;;;;;;;14.73;13.60;;;6.20;99.90;;;;;;4235958;28;20035;-87
2022/11/24 04:50:15;;;;;;;15.77;14.07;;;6.20;99.90;;;;;;4228367;28;20055;-87
2022/11/24 04:52:35;;;;;;;15.07;14.07;;;6.20;99.90;;;;;;4247365;28;20038;-86
2022/11/24 04:54:55;;;;;;;15.55;14.52;;;6.20;99.90;;;;;;4239376;28;20058;-87
2022/11/24 04:57:17;;;;;;;13.73;12.63;;;6.20;99.90;;;;;;4243227;28;20039;-87
2022/11/24 04:59:37;;;;;;;13.32;12.35;;;6.20;99.90;;;;;;4236942;28;20046;-87
2022/11/24 05:01:57;;;;;;;15.52;14.32;;;6.20;99.90;;;;;;4248051;28;20054;-87
2022/11/24 05:04:19;;;;;;;14.27;13.15;;;6.20;99.90;;;;;;4252429;28;20355;-87
2022/11/24 05:06:39;;;;;;;13.68;12.50;;;6.20;99.90;;;;;;4240542;28;20269;-87
2022/11/24 05:08:59;;;;;;;14.27;13.20;;;6.20;99.90;;;;;;4245729;28;20035;-87
2022/11/24 05:11:18;;;;;;;13.75;12.70;;;6.20;99.90;;;;;;4247804;28;20047;-87
2022/11/24 05:13:39;;;;;;;12.00;11.15;;;6.20;99.90;;;;;;4245356;28;20046;-87
2022/11/24 05:16:00;;;;;;;14.25;12.85;;;6.20;99.90;;;;;;4236446;28;20130;-87
2022/11/24 05:18:21;;;;;;;12.95;11.98;;;6.20;99.90;;;;;;4234055;28;20262;-87
2022/11/24 05:20:43;;;;;;;13.02;12.00;;;6.20;99.90;;;;;;4246667;28;20042;-87
2022/11/24 05:23:06;;;;;;;15.73;12.52;;;6.20;99.90;;;;;;4245320;28;20070;-87
2022/11/24 05:25:26;;;;;;;12.13;11.30;;;6.20;99.90;;;;;;4250217;28;20088;-87
2022/11/24 05:27:46;;;;;;;12.63;11.68;;;6.20;99.90;;;;;;4237691;28;20268;-87
2022/11/24 05:30:06;;;;;;;10.80;10.02;;;6.20;99.90;;;;;;4241996;28;20055;-87
2022/11/24 05:32:26;;;;;;;15.23;12.05;;;6.20;99.90;;;;;;4249811;28;20103;-87
2022/11/24 05:34:46;;;;;;;12.52;11.75;;;6.20;99.90;;;;;;4247740;28;20124;-87
2022/11/24 05:37:07;;;;;;;12.05;11.02;;;6.20;99.90;;;;;;4239813;28;20098;-87
2022/11/24 05:39:26;;;;;;;11.15;10.32;;;6.20;99.90;;;;;;4240669;28;20110;-87
2022/11/24 05:41:47;;;;;;;11.43;10.63;;;6.20;99.90;;;;;;4236090;28;20042;-87
2022/11/24 05:44:07;;;;;;;10.98;10.30;;;6.20;99.90;;;;;;4232352;28;20298;-87
2022/11/24 05:46:28;;;;;;;11.15;10.00;;;6.20;99.90;;;;;;4232272;28;20251;-87
2022/11/24 05:48:48;;;;;;;12.70;11.68;;;6.20;99.90;;;;;;4233420;28;20452;-87
2022/11/24 05:51:09;;;;;;;11.45;10.50;;;6.30;99.90;;;;;;4247213;28;20051;-87
2022/11/24 05:53:29;;;;;;;10.85;10.02;;;6.30;99.90;;;;;;4235234;28;20051;-87
2022/11/24 05:55:50;;;;;;;11.45;10.52;;;6.30;99.90;;;;;;4231281;28;20043;-86
2022/11/24 05:58:10;;;;;;;12.57;11.50;;;6.30;99.90;;;;;;4233159;28;20119;-87
2022/11/24 06:00:31;;;;;;;11.10;10.20;;;6.20;99.90;;;;;;4233708;28;20099;-87
2022/11/24 06:02:51;;;;;;;11.50;10.37;;;6.30;99.90;;;;;;4233813;28;20235;-87
2022/11/24 06:05:12;;;;;;;11.75;10.73;;;6.30;99.90;;;;;;4236270;28;20389;-87
2022/11/24 06:07:31;;;;;;;9.27;8.90;;;6.30;99.90;;;;;;4233570;28;20077;-87
2022/11/24 06:09:51;;;;;;;10.45;9.65;;;6.30;99.90;;;;;;4236108;28;20409;-87
2022/11/24 06:12:12;;;;;;;10.55;9.70;;;6.40;99.90;;;;;;4241275;28;20384;-87
2022/11/24 06:14:31;;;;;;;10.63;9.93;;;6.40;99.90;;;;;;4233452;28;20054;-87
2022/11/24 06:16:52;;;;;;;10.45;9.32;;;6.40;99.90;;;;;;4245956;28;20252;-87
2022/11/24 06:19:12;;;;;;;9.40;8.80;;;6.40;99.90;;;;;;4231129;28;20051;-93
2022/11/24 06:21:32;;;;;;;11.43;10.52;;;6.40;99.90;;;;;;4232790;28;20073;-92
2022/11/24 06:23:51;;;;;;;11.68;10.70;;;6.40;99.90;;;;;;4247199;28;20038;-94
2022/11/24 06:26:11;;;;;;;10.90;10.15;;;6.40;99.90;;;;;;4244466;28;20069;-90
2022/11/24 06:28:30;;;;;;;18.67;16.48;;;6.50;99.90;;;;;;4247317;28;20381;-90
2022/11/24 06:30:51;;;;;;;16.00;13.48;;;6.50;99.90;;;;;;4246434;28;20093;-90
2022/11/24 06:33:10;;;;;;;17.58;13.48;;;6.40;99.90;;;;;;4232249;28;20097;-89
2022/11/24 06:35:31;;;;;;;10.43;9.82;;;6.50;99.90;;;;;;4248298;28;20046;-90
2022/11/24 06:37:50;;;;;;;11.52;10.88;;;6.50;99.90;;;;;;4245414;28;20049;-89
2022/11/24 06:40:10;;;;;;;9.15;8.57;;;6.50;99.90;;;;;;4230889;28;20066;-89
2022/11/24 06:42:30;;;;;;;7.65;7.25;;;6.50;99.90;;;;;;4245232;28;20386;-90
2022/11/24 06:44:50;;;;;;;8.20;7.65;;;6.50;99.90;;;;;;4244798;28;20444;-90
2022/11/24 06:47:10;;;;;;;16.77;14.95;;;6.50;99.90;;;;;;4237549;28;20088;-89
2022/11/24 06:49:30;;;;;;;56.75;36.85;;;6.60;99.90;;;;;;4245286;28;20046;-89
2022/11/24 06:51:50;;;;;;;31.45;22.45;;;6.60;99.90;;;;;;4231595;28;20048;-89
2022/11/24 06:54:14;;;;;;;12.38;11.40;;;6.60;99.90;;;;;;4245919;28;20092;-89
2022/11/24 06:56:34;;;;;;;10.07;9.27;;;6.60;99.90;;;;;;4246995;28;20092;-89
2022/11/24 06:58:55;;;;;;;11.75;11.02;;;6.60;99.90;;;;;;4245215;28;20056;-89
2022/11/24 07:01:25;;;;;;;11.40;10.38;;;6.60;99.90;;;;;;4232227;28;20082;-89
2022/11/24 07:03:47;;;;;;;9.70;9.10;;;6.60;99.90;;;;;;4230564;28;20101;-89
2022/11/24 07:06:07;;;;;;;12.52;11.32;;;6.70;99.90;;;;;;4246990;28;20046;-90
2022/11/24 07:08:27;;;;;;;12.93;11.80;;;6.70;99.90;;;;;;4231085;28;20120;-89
2022/11/24 07:10:47;;;;;;;13.77;12.68;;;6.70;99.90;;;;;;4246308;28;20103;-90
2022/11/24 07:13:07;;;;;;;20.65;18.63;;;6.70;99.90;;;;;;4234026;28;20035;-89
2022/11/24 07:15:27;;;;;;;24.27;16.48;;;6.70;99.90;;;;;;4232873;28;20050;-89
2022/11/24 07:17:47;;;;;;;21.92;16.20;;;6.70;99.90;;;;;;4247628;28;20162;-89
2022/11/24 07:20:08;;;;;;;14.40;13.10;;;6.70;99.90;;;;;;4250000;28;20116;-90
2022/11/24 07:22:28;;;;;;;13.40;12.20;;;6.70;99.90;;;;;;4246725;28;20174;-89
2022/11/24 07:24:47;;;;;;;12.43;11.52;;;6.70;99.90;;;;;;4235891;28;20068;-90
2022/11/24 07:27:07;;;;;;;14.18;13.18;;;6.70;99.90;;;;;;4232588;28;20078;-90
2022/11/24 07:29:26;;;;;;;17.40;15.70;;;6.70;99.90;;;;;;4237347;28;20114;-89
2022/11/24 07:31:46;;;;;;;11.45;10.50;;;6.70;99.90;;;;;;4249078;28;20081;-90
2022/11/24 07:34:06;;;;;;;10.63;9.77;;;6.70;99.90;;;;;;4246258;28;20057;-90
2022/11/24 07:36:26;;;;;;;11.32;10.50;;;6.70;99.90;;;;;;4250386;28;20096;-90
2022/11/24 07:38:46;;;;;;;11.88;10.98;;;6.80;99.90;;;;;;4249385;28;20089;-90
2022/11/24 07:41:08;;;;;;;12.98;11.80;;;6.80;99.90;;;;;;4236318;28;20055;-89
2022/11/24 07:43:30;;;;;;;12.60;11.70;;;6.80;99.90;;;;;;4249463;28;20039;-90
2022/11/24 07:45:51;;;;;;;10.10;9.32;;;6.90;99.90;;;;;;4234431;28;20086;-89
2022/11/24 07:48:11;;;;;;;13.18;12.00;;;6.90;99.90;;;;;;4245999;28;20239;-89
2022/11/24 07:50:31;;;;;;;15.70;14.25;;;7.00;99.90;;;;;;4249685;28;20242;-90
2022/11/24 07:52:50;;;;;;;12.82;11.93;;;7.00;99.90;;;;;;4248743;28;20075;-89
2022/11/24 07:55:10;;;;;;;13.35;12.13;;;7.00;99.90;;;;;;4250479;28;20050;-90
2022/11/24 07:57:30;;;;;;;13.82;12.55;;;7.00;99.90;;;;;;4251551;28;20298;-90
2022/11/24 07:59:50;;;;;;;12.60;11.63;;;7.10;99.90;;;;;;4240884;28;20357;-89
2022/11/24 08:02:12;;;;;;;15.52;13.98;;;7.20;99.90;;;;;;4251221;28;20041;-89
2022/11/24 08:04:32;;;;;;;12.18;11.48;;;7.30;99.90;;;;;;4252562;28;20092;-89
2022/11/24 08:06:52;;;;;;;15.68;12.40;;;7.30;99.90;;;;;;4236001;28;20287;-90
2022/11/24 08:09:11;;;;;;;13.43;12.02;;;7.30;99.90;;;;;;4234726;28;20043;-90
2022/11/24 08:11:31;;;;;;;15.85;13.88;;;7.30;99.90;;;;;;4235678;28;20047;-89
2022/11/24 08:13:52;;;;;;;13.93;12.73;;;7.40;99.90;;;;;;4237708;28;20051;-90
2022/11/24 08:16:15;;;;;;;19.17;17.17;;;7.40;99.90;;;;;;4248900;28;20757;-88
2022/11/24 08:18:36;;;;;;;38.38;30.33;;;7.50;99.90;;;;;;4250249;28;20050;-89
2022/11/24 08:20:57;;;;;;;19.45;17.40;;;7.50;99.90;;;;;;4250752;28;20050;-91
2022/11/24 08:23:17;;;;;;;18.67;16.83;;;7.50;99.90;;;;;;4247916;28;20103;-91
2022/11/24 08:25:36;;;;;;;12.07;11.10;;;7.60;99.90;;;;;;4249393;27;20088;-91
2022/11/24 08:27:57;;;;;;;10.40;9.45;;;7.60;99.90;;;;;;4249654;28;20243;-91
2022/11/24 08:30:18;;;;;;;10.38;9.77;;;7.60;99.90;;;;;;4247905;28;20395;-90
2022/11/24 08:32:38;;;;;;;12.23;11.18;;;7.60;99.90;;;;;;4231847;28;20059;-91
2022/11/24 08:34:58;;;;;;;8.40;7.90;;;7.80;99.90;;;;;;4246854;28;20047;-90
2022/11/24 08:37:33;;;;;;;8.35;8.05;;;7.80;99.90;;;;;;4239984;28;20126;-91
2022/11/24 08:39:52;;;;;;;10.25;9.27;;;7.90;99.90;;;;;;4248578;28;20050;-90
2022/11/24 08:42:12;;;;;;;8.98;8.18;;;7.90;99.90;;;;;;4247714;28;20413;-89
2022/11/24 08:44:31;;;;;;;9.68;8.77;;;7.90;99.90;;;;;;4234735;28;20046;-91
2022/11/24 08:46:53;;;;;;;9.90;9.27;;;8.10;99.90;;;;;;4234397;28;20124;-91
2022/11/24 08:49:13;;;;;;;9.90;9.07;;;8.20;99.90;;;;;;4245670;28;20103;-90
2022/11/24 08:51:34;;;;;;;11.02;10.25;;;8.20;99.90;;;;;;4251856;28;20441;-90
2022/11/24 08:53:55;;;;;;;13.32;9.52;;;8.20;99.90;;;;;;4251078;28;20293;-90
2022/11/24 08:56:15;;;;;;;7.68;7.28;;;8.20;99.90;;;;;;4247463;28;20074;-90
2022/11/24 08:58:35;;;;;;;7.32;6.93;;;8.20;99.90;;;;;;4248072;28;20114;-91
2022/11/24 09:01:13;;;;;;;6.95;6.63;;;8.30;99.90;;;;;;4238851;28;20084;-91
2022/11/24 09:03:33;;;;;;;6.68;6.28;;;8.40;99.90;;;;;;4240938;28;20107;-91
2022/11/24 09:05:53;;;;;;;9.45;8.80;;;8.60;99.90;;;;;;4247567;28;20080;-90
2022/11/24 09:08:13;;;;;;;4.60;4.25;;;8.70;99.90;;;;;;4250206;28;20050;-90
2022/11/24 09:10:33;;;;;;;6.20;5.88;;;8.60;99.90;;;;;;4248155;28;20049;-90
2022/11/24 09:12:54;;;;;;;5.97;5.75;;;8.60;99.90;;;;;;4231256;28;20057;-90
2022/11/24 09:15:15;;;;;;;6.70;6.28;;;8.60;99.90;;;;;;4245482;28;20051;-90
2022/11/24 09:17:35;;;;;;;5.07;4.75;;;8.70;99.90;;;;;;4239544;28;20038;-90
2022/11/24 09:19:55;;;;;;;5.22;4.90;;;8.60;99.90;;;;;;4245155;28;20062;-89
2022/11/24 09:22:15;;;;;;;4.25;3.90;;;8.60;99.90;;;;;;4239561;28;20047;-90
2022/11/24 09:24:34;;;;;;;3.35;3.15;;;8.70;99.90;;;;;;4246779;28;20046;-91
2022/11/24 09:26:55;;;;;;;3.95;3.72;;;8.70;99.90;;;;;;4239305;28;20111;-91
2022/11/24 09:29:16;;;;;;;3.88;3.72;;;8.70;99.90;;;;;;4234489;28;20167;-91
2022/11/24 09:31:36;;;;;;;4.25;4.15;;;8.70;99.90;;;;;;4238866;28;20275;-91
2022/11/24 09:33:56;;;;;;;3.63;3.53;;;8.80;99.90;;;;;;4238102;28;20276;-91
2022/11/24 09:36:17;;;;;;;3.42;3.25;;;8.80;99.90;;;;;;4233772;28;20051;-90
2022/11/24 09:38:37;;;;;;;4.03;3.83;;;9.10;99.90;;;;;;4233333;28;20285;-90
2022/11/24 09:41:17;;;;;;;4.47;4.05;;;9.40;99.90;;;;;;4242563;28;20047;-90
2022/11/24 09:43:58;;;;;;;2.70;2.60;;;9.60;99.90;;;;;;4232694;28;20058;-90
2022/11/24 09:46:52;;;;;;;3.03;2.88;;;9.70;99.90;;;;;;4238728;28;20112;-91
2022/11/24 09:49:17;;;;;;;2.70;2.70;;;9.50;99.90;;;;;;4239282;28;20066;-88
2022/11/24 09:51:39;;;;;;;3.03;2.92;;;9.80;99.90;;;;;;4245896;28;20046;-88
2022/11/24 09:54:11;;;;;;;2.88;2.70;;;10.20;99.90;;;;;;4238524;28;20129;-89
2022/11/24 09:56:35;;;;;;;2.05;2.05;;;10.20;99.90;;;;;;4243690;28;20034;-88
2022/11/24 09:59:04;;;;;;;2.60;2.50;;;10.60;99.90;;;;;;4244111;28;20050;-89
2022/11/24 10:01:34;;;;;;;2.47;2.47;;;10.50;99.90;;;;;;4247022;28;20042;-88
2022/11/24 10:03:54;;;;;;;2.67;2.00;;;10.60;99.90;;;;;;4244972;28;20047;-89
2022/11/24 10:06:39;;;;;;;1.73;1.73;;;10.60;99.90;;;;;;4233742;28;20066;-89
2022/11/24 10:09:12;;;;;;;1.92;1.92;;;10.40;99.90;;;;;;4247614;28;20391;-89
2022/11/24 10:12:01;;;;;;;2.83;2.27;;;10.50;99.90;;;;;;4244875;28;20116;-89
2022/11/24 10:14:58;;;;;;;2.22;2.05;;;11.00;99.90;;;;;;4203759;28;20284;-90
2022/11/24 10:17:28;;;;;;;2.20;2.10;;;11.10;99.90;;;;;;4231560;28;20119;-88
2022/11/24 10:19:56;;;;;;;3.03;2.40;;;11.00;99.90;;;;;;4247412;28;20062;-89
2022/11/24 10:22:38;;;;;;;1.95;1.85;;;11.20;99.90;;;;;;4249779;28;20119;-88
2022/11/24 10:25:06;;;;;;;2.22;2.13;;;11.30;99.90;;;;;;4232971;28;20450;-90
2022/11/24 10:27:50;;;;;;;3.90;2.25;;;11.70;99.90;;;;;;4245930;27;20058;-88
2022/11/24 10:30:14;;;;;;;;;;;11.70;99.90;;;;;;4250858;28;20349;-89
2022/11/24 10:32:41;;;;;;;2.50;2.33;;;12.00;99.90;;;;;;4246680;28;19969;-89
2022/11/24 10:35:23;;;;;;;2.58;1.85;;;12.00;99.90;;;;;;4231219;28;20086;-88
2022/11/24 10:37:52;;;;;;;1.70;1.70;;;11.80;99.90;;;;;;4246777;28;20119;-88
2022/11/24 10:40:44;;;;;;;2.33;2.03;;;11.90;99.90;;;;;;4250479;28;20039;-89
2022/11/24 10:43:20;;;;;;;2.13;1.90;;;12.30;99.90;;;;;;4234325;28;20276;-89
2022/11/24 10:45:40;;;;;;;1.35;1.35;;;12.40;99.90;;;;;;4247962;28;20105;-88
2022/11/24 10:48:00;;;;;;;1.90;1.80;;;12.20;99.90;;;;;;4236773;28;20047;-88
2022/11/24 10:50:26;;;;;;;1.67;1.65;;;11.90;99.90;;;;;;4244568;28;20112;-89
2022/11/24 10:53:08;;;;;;;2.10;2.10;;;11.90;99.90;;;;;;4248192;27;20054;-89
2022/11/24 10:55:53;;;;;;;1.60;1.60;;;12.00;99.90;;;;;;4242591;28;20039;-89
2022/11/24 10:58:15;;;;;;;1.30;1.30;;;12.10;99.90;;;;;;4235480;28;20115;-89
2022/11/24 11:00:35;;;;;;;1.65;1.65;;;12.00;99.90;;;;;;4238469;28;20080;-89
2022/11/24 11:03:19;;;;;;;1.60;1.45;;;11.90;99.90;;;;;;4250273;28;20046;-89
2022/11/24 11:05:42;;;;;;;4.10;1.50;;;12.10;99.90;;;;;;4250343;28;20047;-89
2022/11/24 11:08:16;;;;;;;1.48;1.38;;;12.20;99.90;;;;;;4249436;28;20268;-89
2022/11/24 11:10:36;;;;;;;2.55;1.40;;;12.40;99.90;;;;;;4235634;28;20046;-89
2022/11/24 11:12:55;;;;;;;1.30;1.30;;;12.60;99.90;;;;;;4236758;28;20317;-90
2022/11/24 11:15:30;;;;;;;1.60;1.50;;;12.50;99.90;;;;;;4240372;28;20046;-88
2022/11/24 11:17:59;;;;;;;1.35;1.35;;;12.20;99.90;;;;;;4250521;28;20319;-88
2022/11/24 11:20:28;;;;;;;1.40;1.40;;;12.50;99.90;;;;;;4250208;28;20403;-88
2022/11/24 11:22:49;;;;;;;1.30;1.30;;;12.70;99.90;;;;;;4233951;28;20059;-88
2022/11/24 11:25:09;;;;;;;1.45;1.23;;;12.70;99.90;;;;;;4233726;28;20374;-89
2022/11/24 11:27:29;;;;;;;1.20;1.20;;;13.20;99.90;;;;;;4237183;28;20041;-88
2022/11/24 11:29:48;;;;;;;1.35;1.20;;;13.00;99.90;;;;;;4251998;28;20077;-89
2022/11/24 11:32:30;;;;;;;1.50;1.40;;;13.00;99.90;;;;;;4236757;28;20046;-88
2022/11/24 11:35:12;;;;;;;1.35;1.35;;;13.10;99.90;;;;;;4249549;28;20058;-90
2022/11/24 11:37:32;;;;;;;5.30;1.60;;;13.10;99.90;;;;;;4238142;28;20147;-90
2022/11/24 11:39:54;;;;;;;1.30;1.20;;;13.00;99.90;;;;;;4235482;28;20078;-89
2022/11/24 11:42:31;;;;;;;1.35;1.25;;;13.10;99.90;;;;;;4230828;28;20346;-89
2022/11/24 11:45:20;;;;;;;2.88;2.72;;;13.10;99.90;;;;;;4246542;28;20115;-88
2022/11/24 11:47:47;;;;;;;2.42;2.33;;;13.50;99.90;;;;;;4247909;28;20081;-89
2022/11/24 11:50:51;;;;;;;2.00;1.90;;;13.60;99.90;;;;;;4249054;28;20219;-89
2022/11/24 11:53:45;;;;;;;1.83;1.20;;;13.60;99.90;;;;;;4183249;28;20091;-89
2022/11/24 11:56:24;;;;;;;1.10;1.10;;;13.60;99.90;;;;;;4184133;28;20048;-89
2022/11/24 11:59:05;;;;;;;1.60;1.33;;;13.50;99.90;;;;;;4183396;28;20045;-88
2022/11/24 12:01:30;;;;;;;2.25;1.40;;;13.50;99.90;;;;;;4184122;28;20056;-89
2022/11/24 12:04:14;;;;;;;1.30;1.30;;;13.60;99.90;;;;;;4181731;28;20153;-88
2022/11/24 12:07:11;;;;;;;1.33;1.33;;;13.40;99.90;;;;;;4181190;28;20111;-89
2022/11/24 12:09:50;;;;;;;1.20;1.10;;;13.40;99.90;;;;;;4173016;28;20072;-89
2022/11/24 12:12:37;;;;;;;3.45;1.83;;;13.30;99.90;;;;;;4184576;28;20041;-89
2022/11/24 12:14:59;;;;;;;1.50;1.40;;;13.70;99.90;;;;;;4168971;28;20133;-88
2022/11/24 12:18:01;;;;;;;1.50;1.40;;;13.70;99.90;;;;;;4169177;28;20049;-89
2022/11/24 12:21:12;;;;;;;1.83;1.40;;;13.50;99.90;;;;;;4182576;28;20048;-87
2022/11/24 12:23:47;;;;;;;1.40;1.40;;;13.70;99.90;;;;;;4140205;28;20056;-88
2022/11/24 12:26:23;;;;;;;1.38;1.38;;;13.90;99.90;;;;;;4128931;28;20122;-88
2022/11/24 12:28:52;;;;;;;1.90;1.10;;;13.60;99.90;;;;;;4176491;28;20068;-89